Item Display Status Serial CT Sensor

Mooring Depth: 1 m

 

Deployed Sensor

  • Serial Number: 12594
  • NDBC Property Number: 39079
  • Start Date: 1/5/2015 (15:51:08 Z)
  • End Date: 2/23/2016 (20:56:00 Z)
Water Temperature [°C]     6 entries per hour
Showing data from 3/29/2015 (16:50:00 Z) to 3/28/2015 (00:00:01 Z)
Previous Next [ Day | 3-Days | 7-Days ]
First Last
Prev [ Day | 3-Days | 7-Days ] Next
First Last

Start Time:     :
End Time:     :     
Time (in GMT) :00 :50 :40 :30 :20 :10
Previous Next [ Day | 3-Days | 7-Days ]
First Last
Prev [ Day | 3-Days | 7-Days ] Next
First Last


123 => good data
MM => data is determined as missing
-- => data not received/configured
Back to Top Back to Top
3/29/2015 17:00 to 16:10 -- 28.284 28.279 28.267 28.284 28.266
3/29/2015 16:00 to 15:10 28.283 28.285 28.286 28.267 28.291 28.297
3/29/2015 15:00 to 14:10 28.291 28.286 -- -- 28.271 28.277
3/29/2015 14:00 to 13:10 28.297 28.274 28.274 28.268 28.271 28.250
3/29/2015 13:00 to 12:10 28.267 28.234 28.264 28.218 28.248 28.233
3/29/2015 12:00 to 11:10 28.174 28.117 28.124 28.150 28.258 28.259
3/29/2015 11:00 to 10:10 28.246 28.229 28.252 28.264 28.291 28.250
3/29/2015 10:00 to 9:10 28.250 28.256 28.249 28.278 28.266 28.255
3/29/2015 09:00 to 8:10 28.263 28.275 28.275 28.298 28.277 28.294
3/29/2015 08:00 to 7:10 28.306 28.295 28.279 28.269 28.286 28.291
3/29/2015 07:00 to 6:10 28.294 28.295 28.298 28.285 28.276 28.248
3/29/2015 06:00 to 5:10 28.264 28.265 28.282 28.267 28.294 28.287
3/29/2015 05:00 to 4:10 28.294 28.301 28.293 28.271 28.286 28.298
3/29/2015 04:00 to 3:10 28.263 28.294 28.300 28.295 28.286 28.292
3/29/2015 03:00 to 2:10 28.296 28.290 28.294 28.284 28.293 28.286
3/29/2015 02:00 to 1:10 28.285 28.283 28.290 28.293 28.292 28.308
3/29/2015 01:00 to 0:10 28.297 28.309 28.297 28.303 28.296 28.297
3/29/2015 00:00 to 23:10 28.304 28.306 28.308 28.313 28.323 28.324
3/28/2015 23:00 to 22:10 28.326 28.331 28.334 28.334 28.324 28.328
3/28/2015 22:00 to 21:10 28.326 28.319 28.315 28.311 28.317 28.321
3/28/2015 21:00 to 20:10 28.331 28.324 28.342 28.327 28.329 28.321
3/28/2015 20:00 to 19:10 28.307 28.299 28.311 28.311 28.307 28.315
3/28/2015 19:00 to 18:10 28.319 28.323 28.313 28.300 28.299 28.273
3/28/2015 18:00 to 17:10 28.282 28.281 28.261 28.256 28.246 28.238
3/28/2015 17:00 to 16:10 28.231 28.208 28.239 28.213 28.288 28.238
3/28/2015 16:00 to 15:10 28.251 28.235 28.232 28.253 28.268 28.257
3/28/2015 15:00 to 14:10 28.258 28.270 28.265 28.248 28.267 28.257
3/28/2015 14:00 to 13:10 -- -- -- -- -- --
3/28/2015 13:00 to 12:10 28.277 28.253 28.292 28.282 28.260 28.260
3/28/2015 12:00 to 11:10 28.268 28.276 28.277 28.273 28.254 28.256
3/28/2015 11:00 to 10:10 28.252 28.263 28.281 28.263 28.263 28.282
3/28/2015 10:00 to 9:10 28.277 28.277 28.297 28.291 28.292 28.310
3/28/2015 09:00 to 8:10 28.311 28.316 28.288 28.297 28.317 28.305
3/28/2015 08:00 to 7:10 28.329 28.326 28.323 28.310 28.291 28.296
3/28/2015 07:00 to 6:10 28.312 28.299 28.298 28.288 28.282 28.300
3/28/2015 06:00 to 5:10 28.303 28.293 28.279 28.290 28.288 28.274
3/28/2015 05:00 to 4:10 28.264 28.247 28.244 28.247 28.207 28.228
3/28/2015 04:00 to 3:10 28.214 28.216 28.221 28.225 28.226 28.241
3/28/2015 03:00 to 2:10 28.226 28.244 28.255 28.248 28.253 28.263
3/28/2015 02:00 to 1:10 28.272 28.251 28.245 28.256 28.275 28.278
3/28/2015 01:00 to 0:10 28.272 28.272 28.265 28.264 28.267 28.308

 

 

 

Conductivity [S/m]     6 entries per hour
Showing data from 3/29/2015 (16:50:00 Z) to 3/28/2015 (00:00:01 Z)
Previous Next [ Day | 3-Days | 7-Days ]
First Last
Prev [ Day | 3-Days | 7-Days ] Next
First Last

Start Time:     :
End Time:     :     
Time (in GMT) :00 :50 :40 :30 :20 :10
Previous Next [ Day | 3-Days | 7-Days ]
First Last
Prev [ Day | 3-Days | 7-Days ] Next
First Last


123 => good data
MM => data is determined as missing
-- => data not received/configured
Back to Top Back to Top
3/29/2015 17:00 to 16:10 -- 5.60128 5.60139 5.59958 5.60075 5.59930
3/29/2015 16:00 to 15:10 5.60128 5.60133 5.60136 5.59925 5.60132 5.60187
3/29/2015 15:00 to 14:10 5.60145 5.60026 5.60105 5.60175 5.59843 5.59953
3/29/2015 14:00 to 13:10 5.60194 5.59894 5.59907 5.59942 5.59651 5.59410
3/29/2015 13:00 to 12:10 5.59701 5.58799 5.59398 5.58616 5.59098 5.58376
3/29/2015 12:00 to 11:10 5.54516 5.52867 5.54266 5.53383 5.58450 5.58486
3/29/2015 11:00 to 10:10 5.58079 5.57212 5.58545 5.59125 5.59351 5.58731
3/29/2015 10:00 to 9:10 5.58713 5.58747 5.58764 5.59063 5.58827 5.58778
3/29/2015 09:00 to 8:10 5.58969 5.58937 5.59040 5.59401 5.59213 5.59435
3/29/2015 08:00 to 7:10 5.59523 5.59115 5.59141 5.59199 5.59274 5.59252
3/29/2015 07:00 to 6:10 5.59371 5.59342 5.59283 5.58879 5.59023 5.58629
3/29/2015 06:00 to 5:10 5.58667 5.58638 5.58871 5.58770 5.58981 5.58897
3/29/2015 05:00 to 4:10 5.58973 5.59116 5.58880 5.58646 5.58792 5.58903
3/29/2015 04:00 to 3:10 5.58641 5.58920 5.58947 5.58961 5.58784 5.58871
3/29/2015 03:00 to 2:10 5.58909 5.58827 5.58918 5.58841 5.58885 5.58756
3/29/2015 02:00 to 1:10 5.58758 5.58770 5.58777 5.58756 5.58854 5.59048
3/29/2015 01:00 to 0:10 5.58981 5.59062 5.59008 5.58976 5.58814 5.58881
3/29/2015 00:00 to 23:10 5.58995 5.59026 5.59093 5.59176 5.59303 5.59317
3/28/2015 23:00 to 22:10 5.59341 5.59454 5.59508 5.59538 5.59401 5.59398
3/28/2015 22:00 to 21:10 5.59417 5.59321 5.59216 5.59130 5.59186 5.59220
3/28/2015 21:00 to 20:10 5.59425 5.59350 5.59571 5.59376 5.59420 5.59304
3/28/2015 20:00 to 19:10 5.59089 5.58882 5.59128 5.59011 5.58986 5.59040
3/28/2015 19:00 to 18:10 5.59014 5.59195 5.59106 5.58889 5.59055 5.58502
3/28/2015 18:00 to 17:10 5.58678 5.58586 5.58153 5.58110 5.57890 5.57704
3/28/2015 17:00 to 16:10 5.57398 5.56812 5.57701 5.56894 5.58320 5.57891
3/28/2015 16:00 to 15:10 5.58044 5.57949 5.58013 5.58264 5.58277 5.58138
3/28/2015 15:00 to 14:10 5.58109 5.58285 5.58136 5.57972 5.58101 5.57987
3/28/2015 14:00 to 13:10 -- -- -- -- -- --
3/28/2015 13:00 to 12:10 5.58532 5.58274 5.58515 5.58410 5.58297 5.58070
3/28/2015 12:00 to 11:10 5.58144 5.58114 5.58112 5.58223 5.57982 5.57907
3/28/2015 11:00 to 10:10 5.57771 5.57905 5.58129 5.57764 5.57768 5.57958
3/28/2015 10:00 to 9:10 5.57924 5.57921 5.58246 5.58289 5.58354 5.58594
3/28/2015 09:00 to 8:10 5.58579 5.58745 5.58423 5.58733 5.58874 5.58867
3/28/2015 08:00 to 7:10 5.59177 5.59066 5.58978 5.58894 5.58627 5.58418
3/28/2015 07:00 to 6:10 5.58676 5.58571 5.58525 5.58341 5.58365 5.58545
3/28/2015 06:00 to 5:10 5.58519 5.58389 5.58087 5.58262 5.58168 5.57901
3/28/2015 05:00 to 4:10 5.57642 5.57561 5.57312 5.57169 5.56754 5.56842
3/28/2015 04:00 to 3:10 5.56606 5.56493 5.56668 5.56773 5.56664 5.56865
3/28/2015 03:00 to 2:10 5.56891 5.56830 5.57037 5.57049 5.57206 5.57286
3/28/2015 02:00 to 1:10 5.57361 5.57098 5.57268 5.57385 5.57604 5.57721
3/28/2015 01:00 to 0:10 5.57685 5.57697 5.57669 5.57726 5.57708 5.58212

 

 

 

Salinity [psu]     6 entries per hour
Showing data from 3/29/2015 (16:50:00 Z) to 3/28/2015 (00:00:01 Z)
Previous Next [ Day | 3-Days | 7-Days ]
First Last
Prev [ Day | 3-Days | 7-Days ] Next
First Last

Start Time:     :
End Time:     :     
Time (in GMT) :00 :50 :40 :30 :20 :10
Previous Next [ Day | 3-Days | 7-Days ]
First Last
Prev [ Day | 3-Days | 7-Days ] Next
First Last


123 => good data
MM => data is determined as missing
-- => data not received/configured
Back to Top Back to Top
3/29/2015 17:00 to 16:10 -- 34.64 34.64 34.64 34.64 34.64
3/29/2015 16:00 to 15:10 34.64 34.64 34.64 34.64 34.64 34.63
3/29/2015 15:00 to 14:10 34.64 34.63 -- -- 34.63 34.63
3/29/2015 14:00 to 13:10 34.64 34.63 34.63 34.64 34.62 34.61
3/29/2015 13:00 to 12:10 34.62 34.58 34.60 34.58 34.59 34.56
3/29/2015 12:00 to 11:10 34.33 34.26 34.35 34.27 34.54 34.54
3/29/2015 11:00 to 10:10 34.52 34.48 34.55 34.58 34.58 34.57
3/29/2015 10:00 to 9:10 34.57 34.56 34.57 34.57 34.56 34.57
3/29/2015 09:00 to 8:10 34.57 34.56 34.57 34.58 34.58 34.58
3/29/2015 08:00 to 7:10 34.58 34.56 34.57 34.59 34.58 34.57
3/29/2015 07:00 to 6:10 34.58 34.58 34.57 34.55 34.57 34.56
3/29/2015 06:00 to 5:10 34.55 34.55 34.55 34.56 34.55 34.55
3/29/2015 05:00 to 4:10 34.55 34.56 34.55 34.55 34.55 34.54
3/29/2015 04:00 to 3:10 34.55 34.55 34.55 34.55 34.54 34.55
3/29/2015 03:00 to 2:10 34.55 34.54 34.55 34.55 34.55 34.54
3/29/2015 02:00 to 1:10 34.54 34.55 34.54 34.54 34.55 34.55
3/29/2015 01:00 to 0:10 34.55 34.55 34.55 34.55 34.54 34.54
3/29/2015 00:00 to 23:10 34.55 34.55 34.55 34.55 34.55 34.55
3/28/2015 23:00 to 22:10 34.55 34.56 34.56 34.56 34.56 34.56
3/28/2015 22:00 to 21:10 34.56 34.56 34.55 34.55 34.55 34.55
3/28/2015 21:00 to 20:10 34.56 34.56 34.56 34.56 34.56 34.56
3/28/2015 20:00 to 19:10 34.55 34.54 34.55 34.54 34.54 34.54
3/28/2015 19:00 to 18:10 34.54 34.55 34.55 34.54 34.55 34.53
3/28/2015 18:00 to 17:10 34.54 34.53 34.52 34.52 34.51 34.50
3/28/2015 17:00 to 16:10 34.49 34.46 34.50 34.47 34.51 34.52
3/28/2015 16:00 to 15:10 34.52 34.52 34.53 34.53 34.52 34.52
3/28/2015 15:00 to 14:10 34.52 34.52 34.52 34.52 34.51 34.51
3/28/2015 14:00 to 13:10 -- -- -- -- -- --
3/28/2015 13:00 to 12:10 34.53 34.53 34.52 34.52 34.53 34.51
3/28/2015 12:00 to 11:10 34.51 34.51 34.50 34.52 34.51 34.51
3/28/2015 11:00 to 10:10 34.50 34.50 34.50 34.49 34.49 34.49
3/28/2015 10:00 to 9:10 34.49 34.49 34.50 34.51 34.51 34.51
3/28/2015 09:00 to 8:10 34.51 34.52 34.52 34.53 34.53 34.54
3/28/2015 08:00 to 7:10 34.54 34.54 34.53 34.53 34.53 34.51
3/28/2015 07:00 to 6:10 34.52 34.52 34.52 34.51 34.52 34.52
3/28/2015 06:00 to 5:10 34.51 34.51 34.50 34.51 34.50 34.49
3/28/2015 05:00 to 4:10 34.48 34.49 34.47 34.46 34.46 34.45
3/28/2015 04:00 to 3:10 34.45 34.44 34.45 34.45 34.44 34.44
3/28/2015 03:00 to 2:10 34.46 34.44 34.45 34.45 34.46 34.46
3/28/2015 02:00 to 1:10 34.46 34.45 34.47 34.47 34.47 34.48
3/28/2015 01:00 to 0:10 34.48 34.48 34.48 34.49 34.48 34.49